sensor_id;sensor_type;location;lat;lon;timestamp;P1;durP1;ratioP1;P2;durP2;ratioP2
70138;SDS011;57507;43.056;0.150;2023-09-30T00:01:21;1.65;;;1.02;;
70138;SDS011;57507;43.056;0.150;2023-09-30T00:03:47;1.30;;;1.17;;
70138;SDS011;57507;43.056;0.150;2023-09-30T00:06:13;2.88;;;1.58;;
70138;SDS011;57507;43.056;0.150;2023-09-30T00:08:39;1.73;;;1.13;;
70138;SDS011;57507;43.056;0.150;2023-09-30T00:11:07;1.75;;;1.50;;
70138;SDS011;57507;43.056;0.150;2023-09-30T00:13:33;2.50;;;1.30;;
70138;SDS011;57507;43.056;0.150;2023-09-30T00:15:59;1.58;;;1.27;;
70138;SDS011;57507;43.056;0.150;2023-09-30T00:18:25;1.40;;;1.23;;
70138;SDS011;57507;43.056;0.150;2023-09-30T00:20:52;2.35;;;1.00;;
70138;SDS011;57507;43.056;0.150;2023-09-30T00:23:18;1.48;;;1.00;;
70138;SDS011;57507;43.056;0.150;2023-09-30T00:25:46;3.03;;;1.52;;
70138;SDS011;57507;43.056;0.150;2023-09-30T00:28:12;1.23;;;1.10;;
70138;SDS011;57507;43.056;0.150;2023-09-30T00:30:39;3.97;;;1.40;;
70138;SDS011;57507;43.056;0.150;2023-09-30T00:33:05;3.53;;;1.40;;
70138;SDS011;57507;43.056;0.150;2023-09-30T00:35:32;3.22;;;1.20;;
70138;SDS011;57507;43.056;0.150;2023-09-30T00:37:58;1.60;;;1.13;;
70138;SDS011;57507;43.056;0.150;2023-09-30T00:40:24;1.63;;;1.17;;
70138;SDS011;57507;43.056;0.150;2023-09-30T00:42:50;2.35;;;1.05;;
70138;SDS011;57507;43.056;0.150;2023-09-30T00:45:16;2.25;;;1.27;;
70138;SDS011;57507;43.056;0.150;2023-09-30T00:47:42;2.97;;;1.30;;
70138;SDS011;57507;43.056;0.150;2023-09-30T00:50:09;2.78;;;1.20;;
70138;SDS011;57507;43.056;0.150;2023-09-30T00:52:37;2.88;;;1.42;;
70138;SDS011;57507;43.056;0.150;2023-09-30T00:55:04;1.40;;;1.30;;
70138;SDS011;57507;43.056;0.150;2023-09-30T00:57:30;1.52;;;1.20;;
70138;SDS011;57507;43.056;0.150;2023-09-30T00:59:57;1.13;;;1.02;;
70138;SDS011;57507;43.056;0.150;2023-09-30T01:02:23;1.30;;;1.20;;
70138;SDS011;57507;43.056;0.150;2023-09-30T01:04:49;1.65;;;1.15;;
70138;SDS011;57507;43.056;0.150;2023-09-30T01:07:15;1.30;;;1.20;;
70138;SDS011;57507;43.056;0.150;2023-09-30T01:09:42;1.90;;;1.20;;
70138;SDS011;57507;43.056;0.150;2023-09-30T01:12:08;1.88;;;1.10;;
70138;SDS011;57507;43.056;0.150;2023-09-30T01:14:34;1.20;;;1.10;;
70138;SDS011;57507;43.056;0.150;2023-09-30T01:17:03;1.95;;;0.93;;
70138;SDS011;57507;43.056;0.150;2023-09-30T01:19:33;1.52;;;1.00;;
70138;SDS011;57507;43.056;0.150;2023-09-30T01:22:00;1.60;;;1.10;;
70138;SDS011;57507;43.056;0.150;2023-09-30T01:24:31;2.15;;;1.05;;
70138;SDS011;57507;43.056;0.150;2023-09-30T01:26:57;1.88;;;1.30;;
70138;SDS011;57507;43.056;0.150;2023-09-30T01:29:23;1.40;;;1.20;;
70138;SDS011;57507;43.056;0.150;2023-09-30T01:31:51;1.10;;;0.98;;
70138;SDS011;57507;43.056;0.150;2023-09-30T01:34:18;1.92;;;0.90;;
70138;SDS011;57507;43.056;0.150;2023-09-30T01:36:44;2.20;;;1.60;;
70138;SDS011;57507;43.056;0.150;2023-09-30T01:39:12;1.80;;;0.90;;
70138;SDS011;57507;43.056;0.150;2023-09-30T01:41:38;1.98;;;1.20;;
70138;SDS011;57507;43.056;0.150;2023-09-30T01:44:05;1.35;;;0.90;;
70138;SDS011;57507;43.056;0.150;2023-09-30T01:46:31;1.63;;;1.25;;
70138;SDS011;57507;43.056;0.150;2023-09-30T01:48:57;1.35;;;1.20;;
70138;SDS011;57507;43.056;0.150;2023-09-30T01:51:23;2.30;;;1.05;;
70138;SDS011;57507;43.056;0.150;2023-09-30T01:53:49;1.85;;;1.00;;
70138;SDS011;57507;43.056;0.150;2023-09-30T01:56:15;1.70;;;1.15;;
70138;SDS011;57507;43.056;0.150;2023-09-30T01:58:41;0.98;;;0.90;;
70138;SDS011;57507;43.056;0.150;2023-09-30T02:01:08;1.27;;;1.13;;
70138;SDS011;57507;43.056;0.150;2023-09-30T02:03:34;1.17;;;0.98;;
70138;SDS011;57507;43.056;0.150;2023-09-30T02:06:01;1.23;;;1.05;;
70138;SDS011;57507;43.056;0.150;2023-09-30T02:08:28;1.33;;;1.00;;
70138;SDS011;57507;43.056;0.150;2023-09-30T02:10:54;1.40;;;1.20;;
70138;SDS011;57507;43.056;0.150;2023-09-30T02:13:20;1.33;;;1.20;;
70138;SDS011;57507;43.056;0.150;2023-09-30T02:15:46;1.77;;;1.10;;
70138;SDS011;57507;43.056;0.150;2023-09-30T02:18:12;0.95;;;0.80;;
70138;SDS011;57507;43.056;0.150;2023-09-30T02:20:39;1.15;;;0.88;;
70138;SDS011;57507;43.056;0.150;2023-09-30T02:23:09;2.17;;;0.95;;
70138;SDS011;57507;43.056;0.150;2023-09-30T02:25:40;1.25;;;0.98;;
70138;SDS011;57507;43.056;0.150;2023-09-30T02:28:08;1.05;;;0.82;;
70138;SDS011;57507;43.056;0.150;2023-09-30T02:30:34;1.23;;;0.85;;
70138;SDS011;57507;43.056;0.150;2023-09-30T02:33:00;1.17;;;0.77;;
70138;SDS011;57507;43.056;0.150;2023-09-30T02:35:27;1.08;;;0.80;;
70138;SDS011;57507;43.056;0.150;2023-09-30T02:37:53;0.70;;;0.60;;
70138;SDS011;57507;43.056;0.150;2023-09-30T02:40:19;0.73;;;0.70;;
70138;SDS011;57507;43.056;0.150;2023-09-30T02:42:46;1.90;;;0.60;;
70138;SDS011;57507;43.056;0.150;2023-09-30T02:45:14;0.75;;;0.50;;
70138;SDS011;57507;43.056;0.150;2023-09-30T02:47:42;2.15;;;0.82;;
70138;SDS011;57507;43.056;0.150;2023-09-30T02:50:09;1.10;;;0.68;;
70138;SDS011;57507;43.056;0.150;2023-09-30T02:52:39;0.75;;;0.70;;
70138;SDS011;57507;43.056;0.150;2023-09-30T02:55:11;1.23;;;0.63;;
70138;SDS011;57507;43.056;0.150;2023-09-30T02:57:37;1.88;;;0.60;;
70138;SDS011;57507;43.056;0.150;2023-09-30T03:00:08;1.05;;;0.68;;
70138;SDS011;57507;43.056;0.150;2023-09-30T03:02:53;0.95;;;0.85;;
70138;SDS011;57507;43.056;0.150;2023-09-30T03:05:20;0.60;;;0.52;;
70138;SDS011;57507;43.056;0.150;2023-09-30T03:07:46;0.63;;;0.60;;
70138;SDS011;57507;43.056;0.150;2023-09-30T03:10:13;0.57;;;0.57;;
70138;SDS011;57507;43.056;0.150;2023-09-30T03:12:45;1.88;;;0.70;;
70138;SDS011;57507;43.056;0.150;2023-09-30T03:15:11;0.50;;;0.43;;
70138;SDS011;57507;43.056;0.150;2023-09-30T03:17:37;1.77;;;0.50;;
70138;SDS011;57507;43.056;0.150;2023-09-30T03:20:03;0.65;;;0.55;;
70138;SDS011;57507;43.056;0.150;2023-09-30T03:22:40;1.00;;;0.70;;
70138;SDS011;57507;43.056;0.150;2023-09-30T03:25:07;0.57;;;0.50;;
70138;SDS011;57507;43.056;0.150;2023-09-30T03:27:34;1.83;;;0.60;;
70138;SDS011;57507;43.056;0.150;2023-09-30T03:30:01;0.95;;;0.65;;
70138;SDS011;57507;43.056;0.150;2023-09-30T03:32:27;0.82;;;0.55;;
70138;SDS011;57507;43.056;0.150;2023-09-30T03:34:54;1.75;;;0.77;;
70138;SDS011;57507;43.056;0.150;2023-09-30T03:37:24;0.88;;;0.70;;
70138;SDS011;57507;43.056;0.150;2023-09-30T03:39:52;1.05;;;0.60;;
70138;SDS011;57507;43.056;0.150;2023-09-30T03:42:18;1.77;;;0.80;;
70138;SDS011;57507;43.056;0.150;2023-09-30T03:44:44;2.45;;;0.90;;
70138;SDS011;57507;43.056;0.150;2023-09-30T03:47:10;1.83;;;1.00;;
70138;SDS011;57507;43.056;0.150;2023-09-30T03:49:36;2.75;;;0.60;;
70138;SDS011;57507;43.056;0.150;2023-09-30T03:52:03;2.05;;;1.00;;
70138;SDS011;57507;43.056;0.150;2023-09-30T03:54:31;0.70;;;0.70;;
70138;SDS011;57507;43.056;0.150;2023-09-30T03:56:57;0.88;;;0.80;;
70138;SDS011;57507;43.056;0.150;2023-09-30T03:59:25;0.95;;;0.70;;
70138;SDS011;57507;43.056;0.150;2023-09-30T04:01:51;0.77;;;0.65;;
70138;SDS011;57507;43.056;0.150;2023-09-30T04:04:19;1.23;;;0.80;;
70138;SDS011;57507;43.056;0.150;2023-09-30T04:06:46;1.05;;;0.70;;
70138;SDS011;57507;43.056;0.150;2023-09-30T04:09:13;0.60;;;0.60;;
70138;SDS011;57507;43.056;0.150;2023-09-30T04:11:39;2.97;;;1.17;;
70138;SDS011;57507;43.056;0.150;2023-09-30T04:14:07;2.15;;;0.73;;
70138;SDS011;57507;43.056;0.150;2023-09-30T04:16:34;0.90;;;0.90;;
70138;SDS011;57507;43.056;0.150;2023-09-30T04:19:00;1.70;;;0.68;;
70138;SDS011;57507;43.056;0.150;2023-09-30T04:21:26;1.35;;;0.75;;
70138;SDS011;57507;43.056;0.150;2023-09-30T04:23:55;1.10;;;0.60;;
70138;SDS011;57507;43.056;0.150;2023-09-30T04:26:21;0.65;;;0.60;;
70138;SDS011;57507;43.056;0.150;2023-09-30T04:28:47;1.73;;;0.70;;
70138;SDS011;57507;43.056;0.150;2023-09-30T04:31:14;0.75;;;0.70;;
70138;SDS011;57507;43.056;0.150;2023-09-30T04:33:40;0.52;;;0.52;;
70138;SDS011;57507;43.056;0.150;2023-09-30T04:36:06;1.00;;;0.52;;
70138;SDS011;57507;43.056;0.150;2023-09-30T04:38:36;0.57;;;0.50;;
70138;SDS011;57507;43.056;0.150;2023-09-30T04:41:05;0.57;;;0.45;;
70138;SDS011;57507;43.056;0.150;2023-09-30T04:43:32;0.70;;;0.60;;
70138;SDS011;57507;43.056;0.150;2023-09-30T04:45:58;0.80;;;0.60;;
70138;SDS011;57507;43.056;0.150;2023-09-30T04:48:24;0.95;;;0.50;;
70138;SDS011;57507;43.056;0.150;2023-09-30T04:50:51;1.00;;;0.40;;
70138;SDS011;57507;43.056;0.150;2023-09-30T04:53:17;1.90;;;0.60;;
70138;SDS011;57507;43.056;0.150;2023-09-30T04:55:46;0.35;;;0.35;;
70138;SDS011;57507;43.056;0.150;2023-09-30T04:58:15;0.40;;;0.40;;
70138;SDS011;57507;43.056;0.150;2023-09-30T05:00:41;0.47;;;0.40;;
70138;SDS011;57507;43.056;0.150;2023-09-30T05:03:08;0.50;;;0.45;;
70138;SDS011;57507;43.056;0.150;2023-09-30T05:05:34;0.75;;;0.40;;
70138;SDS011;57507;43.056;0.150;2023-09-30T05:08:00;0.52;;;0.40;;
70138;SDS011;57507;43.056;0.150;2023-09-30T05:10:26;0.98;;;0.43;;
70138;SDS011;57507;43.056;0.150;2023-09-30T05:12:52;0.70;;;0.43;;
70138;SDS011;57507;43.056;0.150;2023-09-30T05:15:20;0.60;;;0.50;;
70138;SDS011;57507;43.056;0.150;2023-09-30T05:17:46;0.52;;;0.50;;
70138;SDS011;57507;43.056;0.150;2023-09-30T05:20:13;1.17;;;0.57;;
70138;SDS011;57507;43.056;0.150;2023-09-30T05:22:42;0.73;;;0.50;;
70138;SDS011;57507;43.056;0.150;2023-09-30T05:25:10;0.45;;;0.45;;
70138;SDS011;57507;43.056;0.150;2023-09-30T05:27:36;1.17;;;0.30;;
70138;SDS011;57507;43.056;0.150;2023-09-30T05:30:03;0.43;;;0.40;;
70138;SDS011;57507;43.056;0.150;2023-09-30T05:32:31;0.60;;;0.60;;
70138;SDS011;57507;43.056;0.150;2023-09-30T05:34:57;0.55;;;0.55;;
70138;SDS011;57507;43.056;0.150;2023-09-30T05:37:23;0.90;;;0.52;;
70138;SDS011;57507;43.056;0.150;2023-09-30T05:39:49;0.70;;;0.50;;
70138;SDS011;57507;43.056;0.150;2023-09-30T05:42:16;0.50;;;0.50;;
70138;SDS011;57507;43.056;0.150;2023-09-30T05:44:43;0.60;;;0.60;;
70138;SDS011;57507;43.056;0.150;2023-09-30T05:47:09;0.50;;;0.45;;
70138;SDS011;57507;43.056;0.150;2023-09-30T05:49:36;0.40;;;0.40;;
70138;SDS011;57507;43.056;0.150;2023-09-30T05:52:03;0.50;;;0.50;;
70138;SDS011;57507;43.056;0.150;2023-09-30T05:54:30;0.55;;;0.40;;
70138;SDS011;57507;43.056;0.150;2023-09-30T05:56:56;0.77;;;0.50;;
70138;SDS011;57507;43.056;0.150;2023-09-30T05:59:22;0.55;;;0.50;;
70138;SDS011;57507;43.056;0.150;2023-09-30T06:01:50;0.63;;;0.50;;
70138;SDS011;57507;43.056;0.150;2023-09-30T06:04:16;0.30;;;0.30;;
70138;SDS011;57507;43.056;0.150;2023-09-30T06:06:42;0.90;;;0.55;;
70138;SDS011;57507;43.056;0.150;2023-09-30T06:09:09;0.82;;;0.50;;
70138;SDS011;57507;43.056;0.150;2023-09-30T06:11:36;1.38;;;0.43;;
70138;SDS011;57507;43.056;0.150;2023-09-30T06:14:02;0.93;;;0.50;;
70138;SDS011;57507;43.056;0.150;2023-09-30T06:16:31;1.55;;;0.40;;
70138;SDS011;57507;43.056;0.150;2023-09-30T06:18:57;0.40;;;0.40;;
70138;SDS011;57507;43.056;0.150;2023-09-30T06:21:24;0.35;;;0.35;;
70138;SDS011;57507;43.056;0.150;2023-09-30T06:23:54;0.40;;;0.40;;
70138;SDS011;57507;43.056;0.150;2023-09-30T06:26:20;0.68;;;0.50;;
70138;SDS011;57507;43.056;0.150;2023-09-30T06:28:46;0.35;;;0.30;;
70138;SDS011;57507;43.056;0.150;2023-09-30T06:31:13;0.45;;;0.45;;
70138;SDS011;57507;43.056;0.150;2023-09-30T06:33:40;0.63;;;0.40;;
70138;SDS011;57507;43.056;0.150;2023-09-30T06:36:10;1.27;;;0.43;;
70138;SDS011;57507;43.056;0.150;2023-09-30T06:38:36;0.68;;;0.40;;
70138;SDS011;57507;43.056;0.150;2023-09-30T06:41:02;0.30;;;0.30;;
70138;SDS011;57507;43.056;0.150;2023-09-30T06:43:29;0.75;;;0.30;;
70138;SDS011;57507;43.056;0.150;2023-09-30T06:45:55;0.28;;;0.28;;
70138;SDS011;57507;43.056;0.150;2023-09-30T06:48:21;0.50;;;0.40;;
70138;SDS011;57507;43.056;0.150;2023-09-30T06:50:50;0.38;;;0.38;;
70138;SDS011;57507;43.056;0.150;2023-09-30T06:53:17;0.68;;;0.50;;
70138;SDS011;57507;43.056;0.150;2023-09-30T06:55:44;0.43;;;0.30;;
70138;SDS011;57507;43.056;0.150;2023-09-30T06:58:11;1.35;;;0.50;;
70138;SDS011;57507;43.056;0.150;2023-09-30T07:00:40;1.38;;;0.40;;
70138;SDS011;57507;43.056;0.150;2023-09-30T07:03:06;0.20;;;0.20;;
70138;SDS011;57507;43.056;0.150;2023-09-30T07:05:35;0.10;;;0.10;;
70138;SDS011;57507;43.056;0.150;2023-09-30T07:08:01;0.20;;;0.20;;
70138;SDS011;57507;43.056;0.150;2023-09-30T07:10:27;0.30;;;0.30;;
70138;SDS011;57507;43.056;0.150;2023-09-30T07:12:56;0.20;;;0.20;;
70138;SDS011;57507;43.056;0.150;2023-09-30T07:15:23;0.45;;;0.40;;
70138;SDS011;57507;43.056;0.150;2023-09-30T07:17:49;0.32;;;0.30;;
70138;SDS011;57507;43.056;0.150;2023-09-30T07:20:15;0.32;;;0.30;;
70138;SDS011;57507;43.056;0.150;2023-09-30T07:22:42;0.40;;;0.40;;
70138;SDS011;57507;43.056;0.150;2023-09-30T07:25:08;0.28;;;0.28;;
70138;SDS011;57507;43.056;0.150;2023-09-30T07:27:35;0.93;;;0.50;;
70138;SDS011;57507;43.056;0.150;2023-09-30T07:30:01;0.75;;;0.40;;
70138;SDS011;57507;43.056;0.150;2023-09-30T07:32:27;0.75;;;0.40;;
70138;SDS011;57507;43.056;0.150;2023-09-30T07:34:54;0.28;;;0.28;;
70138;SDS011;57507;43.056;0.150;2023-09-30T07:37:20;0.20;;;0.20;;
70138;SDS011;57507;43.056;0.150;2023-09-30T07:39:46;0.20;;;0.20;;
70138;SDS011;57507;43.056;0.150;2023-09-30T07:42:12;1.35;;;0.40;;
70138;SDS011;57507;43.056;0.150;2023-09-30T07:44:38;0.20;;;0.20;;
70138;SDS011;57507;43.056;0.150;2023-09-30T07:47:04;1.50;;;0.55;;
70138;SDS011;57507;43.056;0.150;2023-09-30T07:49:31;0.30;;;0.30;;
70138;SDS011;57507;43.056;0.150;2023-09-30T07:51:57;0.38;;;0.38;;
70138;SDS011;57507;43.056;0.150;2023-09-30T07:54:23;0.40;;;0.40;;
70138;SDS011;57507;43.056;0.150;2023-09-30T07:56:49;0.65;;;0.40;;
70138;SDS011;57507;43.056;0.150;2023-09-30T07:59:15;0.95;;;0.38;;
70138;SDS011;57507;43.056;0.150;2023-09-30T08:01:41;1.95;;;0.40;;
70138;SDS011;57507;43.056;0.150;2023-09-30T08:04:07;0.20;;;0.20;;
70138;SDS011;57507;43.056;0.150;2023-09-30T08:06:33;0.93;;;0.38;;
70138;SDS011;57507;43.056;0.150;2023-09-30T08:08:59;1.63;;;0.40;;
70138;SDS011;57507;43.056;0.150;2023-09-30T08:11:28;0.90;;;0.30;;
70138;SDS011;57507;43.056;0.150;2023-09-30T08:13:56;1.55;;;0.60;;
70138;SDS011;57507;43.056;0.150;2023-09-30T08:16:24;0.47;;;0.40;;
70138;SDS011;57507;43.056;0.150;2023-09-30T08:18:50;0.50;;;0.30;;
70138;SDS011;57507;43.056;0.150;2023-09-30T08:21:16;0.77;;;0.45;;
70138;SDS011;57507;43.056;0.150;2023-09-30T08:23:42;1.00;;;0.52;;
70138;SDS011;57507;43.056;0.150;2023-09-30T08:26:09;1.08;;;0.52;;
70138;SDS011;57507;43.056;0.150;2023-09-30T08:28:35;3.13;;;0.80;;
70138;SDS011;57507;43.056;0.150;2023-09-30T08:31:01;1.20;;;0.55;;
70138;SDS011;57507;43.056;0.150;2023-09-30T08:33:28;1.25;;;0.40;;
70138;SDS011;57507;43.056;0.150;2023-09-30T08:35:56;1.15;;;0.47;;
70138;SDS011;57507;43.056;0.150;2023-09-30T08:38:23;2.78;;;0.77;;
70138;SDS011;57507;43.056;0.150;2023-09-30T08:40:50;1.88;;;0.80;;
70138;SDS011;57507;43.056;0.150;2023-09-30T08:43:18;1.52;;;0.90;;
70138;SDS011;57507;43.056;0.150;2023-09-30T08:45:45;1.20;;;0.80;;
70138;SDS011;57507;43.056;0.150;2023-09-30T08:48:12;2.58;;;1.08;;
70138;SDS011;57507;43.056;0.150;2023-09-30T08:50:39;1.63;;;0.95;;
70138;SDS011;57507;43.056;0.150;2023-09-30T08:53:08;1.25;;;0.90;;
70138;SDS011;57507;43.056;0.150;2023-09-30T08:55:35;1.40;;;0.80;;
70138;SDS011;57507;43.056;0.150;2023-09-30T08:58:01;1.35;;;0.80;;
70138;SDS011;57507;43.056;0.150;2023-09-30T09:00:28;2.15;;;0.80;;
70138;SDS011;57507;43.056;0.150;2023-09-30T09:02:54;1.63;;;0.70;;
70138;SDS011;57507;43.056;0.150;2023-09-30T09:05:20;0.95;;;0.75;;
70138;SDS011;57507;43.056;0.150;2023-09-30T09:07:46;3.08;;;0.70;;
70138;SDS011;57507;43.056;0.150;2023-09-30T09:10:12;2.25;;;0.90;;
70138;SDS011;57507;43.056;0.150;2023-09-30T09:12:39;1.00;;;0.60;;
70138;SDS011;57507;43.056;0.150;2023-09-30T09:15:06;1.35;;;0.70;;
70138;SDS011;57507;43.056;0.150;2023-09-30T09:17:40;2.28;;;1.00;;
70138;SDS011;57507;43.056;0.150;2023-09-30T09:20:23;1.50;;;0.88;;
70138;SDS011;57507;43.056;0.150;2023-09-30T09:22:53;1.35;;;0.70;;
70138;SDS011;57507;43.056;0.150;2023-09-30T09:25:21;0.85;;;0.65;;
70138;SDS011;57507;43.056;0.150;2023-09-30T09:27:51;2.00;;;0.80;;
70138;SDS011;57507;43.056;0.150;2023-09-30T09:30:22;1.30;;;0.80;;
70138;SDS011;57507;43.056;0.150;2023-09-30T09:32:51;0.90;;;0.70;;
70138;SDS011;57507;43.056;0.150;2023-09-30T09:35:22;1.50;;;0.80;;
70138;SDS011;57507;43.056;0.150;2023-09-30T09:40:26;2.83;;;0.70;;
70138;SDS011;57507;43.056;0.150;2023-09-30T09:42:53;1.40;;;0.90;;
70138;SDS011;57507;43.056;0.150;2023-09-30T09:45:21;1.10;;;0.70;;
70138;SDS011;57507;43.056;0.150;2023-09-30T09:47:50;1.27;;;0.60;;
70138;SDS011;57507;43.056;0.150;2023-09-30T09:50:17;0.85;;;0.60;;
70138;SDS011;57507;43.056;0.150;2023-09-30T09:52:46;1.13;;;0.98;;
70138;SDS011;57507;43.056;0.150;2023-09-30T09:55:15;1.90;;;0.77;;
70138;SDS011;57507;43.056;0.150;2023-09-30T09:57:42;0.98;;;0.82;;
70138;SDS011;57507;43.056;0.150;2023-09-30T10:00:10;1.20;;;0.68;;
70138;SDS011;57507;43.056;0.150;2023-09-30T10:02:39;1.95;;;0.85;;
70138;SDS011;57507;43.056;0.150;2023-09-30T10:05:05;0.82;;;0.82;;
70138;SDS011;57507;43.056;0.150;2023-09-30T10:07:39;1.33;;;0.90;;
70138;SDS011;57507;43.056;0.150;2023-09-30T10:10:07;2.63;;;0.98;;
70138;SDS011;57507;43.056;0.150;2023-09-30T10:12:38;1.45;;;0.70;;
70138;SDS011;57507;43.056;0.150;2023-09-30T10:17:59;0.77;;;0.77;;
70138;SDS011;57507;43.056;0.150;2023-09-30T10:20:29;2.50;;;1.00;;
70138;SDS011;57507;43.056;0.150;2023-09-30T10:25:40;1.52;;;1.00;;
70138;SDS011;57507;43.056;0.150;2023-09-30T10:36:39;0.93;;;0.80;;
70138;SDS011;57507;43.056;0.150;2023-09-30T10:39:10;1.10;;;0.73;;
70138;SDS011;57507;43.056;0.150;2023-09-30T10:46:54;1.15;;;0.80;;
70138;SDS011;57507;43.056;0.150;2023-09-30T10:51:53;0.65;;;0.60;;
70138;SDS011;57507;43.056;0.150;2023-09-30T10:54:23;1.40;;;0.82;;
70138;SDS011;57507;43.056;0.150;2023-09-30T10:56:49;1.08;;;0.70;;
70138;SDS011;57507;43.056;0.150;2023-09-30T10:59:18;0.85;;;0.70;;
70138;SDS011;57507;43.056;0.150;2023-09-30T11:01:45;1.15;;;0.90;;
70138;SDS011;57507;43.056;0.150;2023-09-30T11:04:11;0.65;;;0.60;;
70138;SDS011;57507;43.056;0.150;2023-09-30T11:06:40;0.60;;;0.60;;
70138;SDS011;57507;43.056;0.150;2023-09-30T11:09:07;0.82;;;0.75;;
70138;SDS011;57507;43.056;0.150;2023-09-30T11:16:45;1.00;;;0.60;;
70138;SDS011;57507;43.056;0.150;2023-09-30T11:19:11;0.73;;;0.60;;
70138;SDS011;57507;43.056;0.150;2023-09-30T11:21:41;1.30;;;0.70;;
70138;SDS011;57507;43.056;0.150;2023-09-30T11:24:08;0.70;;;0.70;;
70138;SDS011;57507;43.056;0.150;2023-09-30T11:26:35;2.05;;;0.77;;
70138;SDS011;57507;43.056;0.150;2023-09-30T11:29:04;1.33;;;1.00;;
70138;SDS011;57507;43.056;0.150;2023-09-30T11:31:30;1.08;;;0.85;;
70138;SDS011;57507;43.056;0.150;2023-09-30T11:34:00;1.00;;;0.80;;
70138;SDS011;57507;43.056;0.150;2023-09-30T11:36:29;1.38;;;0.70;;
70138;SDS011;57507;43.056;0.150;2023-09-30T11:38:59;0.95;;;0.80;;
70138;SDS011;57507;43.056;0.150;2023-09-30T11:41:41;1.20;;;0.73;;
70138;SDS011;57507;43.056;0.150;2023-09-30T11:44:11;0.93;;;0.82;;
70138;SDS011;57507;43.056;0.150;2023-09-30T11:49:24;1.38;;;0.63;;
70138;SDS011;57507;43.056;0.150;2023-09-30T11:51:50;0.93;;;0.60;;
70138;SDS011;57507;43.056;0.150;2023-09-30T11:54:16;2.08;;;0.68;;
70138;SDS011;57507;43.056;0.150;2023-09-30T11:56:42;1.83;;;0.88;;
70138;SDS011;57507;43.056;0.150;2023-09-30T11:59:08;2.00;;;0.80;;
70138;SDS011;57507;43.056;0.150;2023-09-30T12:01:37;0.52;;;0.50;;
70138;SDS011;57507;43.056;0.150;2023-09-30T12:04:03;0.73;;;0.60;;
70138;SDS011;57507;43.056;0.150;2023-09-30T12:06:30;1.35;;;0.77;;
70138;SDS011;57507;43.056;0.150;2023-09-30T12:08:56;0.70;;;0.60;;
70138;SDS011;57507;43.056;0.150;2023-09-30T12:11:22;1.13;;;0.60;;
70138;SDS011;57507;43.056;0.150;2023-09-30T12:13:49;2.15;;;0.80;;
70138;SDS011;57507;43.056;0.150;2023-09-30T12:16:16;3.35;;;0.98;;
70138;SDS011;57507;43.056;0.150;2023-09-30T12:18:44;0.98;;;0.88;;
70138;SDS011;57507;43.056;0.150;2023-09-30T12:21:11;1.35;;;0.93;;
70138;SDS011;57507;43.056;0.150;2023-09-30T12:23:38;1.00;;;0.70;;
70138;SDS011;57507;43.056;0.150;2023-09-30T12:26:04;2.00;;;0.88;;
70138;SDS011;57507;43.056;0.150;2023-09-30T12:28:34;1.17;;;0.82;;
70138;SDS011;57507;43.056;0.150;2023-09-30T12:31:00;2.20;;;0.70;;
70138;SDS011;57507;43.056;0.150;2023-09-30T12:33:30;1.27;;;0.80;;
70138;SDS011;57507;43.056;0.150;2023-09-30T12:35:57;1.63;;;0.70;;
70138;SDS011;57507;43.056;0.150;2023-09-30T12:38:24;0.70;;;0.70;;
70138;SDS011;57507;43.056;0.150;2023-09-30T12:40:56;1.45;;;0.80;;
70138;SDS011;57507;43.056;0.150;2023-09-30T12:43:22;1.30;;;0.88;;
70138;SDS011;57507;43.056;0.150;2023-09-30T12:45:48;0.60;;;0.60;;
70138;SDS011;57507;43.056;0.150;2023-09-30T12:48:14;2.78;;;1.02;;
70138;SDS011;57507;43.056;0.150;2023-09-30T12:50:42;1.83;;;0.93;;
70138;SDS011;57507;43.056;0.150;2023-09-30T12:53:08;0.95;;;0.73;;
70138;SDS011;57507;43.056;0.150;2023-09-30T12:55:34;1.85;;;0.88;;
70138;SDS011;57507;43.056;0.150;2023-09-30T12:58:00;1.23;;;0.80;;
70138;SDS011;57507;43.056;0.150;2023-09-30T13:00:27;1.08;;;0.70;;
70138;SDS011;57507;43.056;0.150;2023-09-30T13:02:56;0.98;;;0.80;;
70138;SDS011;57507;43.056;0.150;2023-09-30T13:05:23;0.50;;;0.50;;
70138;SDS011;57507;43.056;0.150;2023-09-30T13:07:50;0.63;;;0.60;;
70138;SDS011;57507;43.056;0.150;2023-09-30T13:10:17;3.55;;;0.82;;
70138;SDS011;57507;43.056;0.150;2023-09-30T13:12:44;0.85;;;0.70;;
70138;SDS011;57507;43.056;0.150;2023-09-30T13:15:10;1.30;;;0.60;;
70138;SDS011;57507;43.056;0.150;2023-09-30T13:17:36;0.95;;;0.70;;
70138;SDS011;57507;43.056;0.150;2023-09-30T13:20:02;0.98;;;0.60;;
70138;SDS011;57507;43.056;0.150;2023-09-30T13:22:30;2.45;;;0.60;;
70138;SDS011;57507;43.056;0.150;2023-09-30T13:25:00;1.42;;;0.55;;
70138;SDS011;57507;43.056;0.150;2023-09-30T13:27:27;1.63;;;0.80;;
70138;SDS011;57507;43.056;0.150;2023-09-30T13:29:53;5.10;;;0.98;;
70138;SDS011;57507;43.056;0.150;2023-09-30T13:32:22;1.45;;;0.82;;
70138;SDS011;57507;43.056;0.150;2023-09-30T13:34:48;1.52;;;0.88;;
70138;SDS011;57507;43.056;0.150;2023-09-30T13:37:14;1.05;;;0.77;;
70138;SDS011;57507;43.056;0.150;2023-09-30T13:39:40;2.05;;;0.98;;
70138;SDS011;57507;43.056;0.150;2023-09-30T13:42:06;0.95;;;0.80;;
70138;SDS011;57507;43.056;0.150;2023-09-30T13:44:32;1.10;;;0.88;;
70138;SDS011;57507;43.056;0.150;2023-09-30T13:46:58;0.98;;;0.90;;
70138;SDS011;57507;43.056;0.150;2023-09-30T13:49:25;1.00;;;0.73;;
70138;SDS011;57507;43.056;0.150;2023-09-30T13:51:51;2.45;;;1.02;;
70138;SDS011;57507;43.056;0.150;2023-09-30T13:54:17;2.03;;;0.90;;
70138;SDS011;57507;43.056;0.150;2023-09-30T13:56:43;2.47;;;1.27;;
70138;SDS011;57507;43.056;0.150;2023-09-30T13:59:09;3.22;;;1.10;;
70138;SDS011;57507;43.056;0.150;2023-09-30T14:01:35;3.25;;;1.00;;
70138;SDS011;57507;43.056;0.150;2023-09-30T14:04:01;2.47;;;1.10;;
70138;SDS011;57507;43.056;0.150;2023-09-30T14:06:29;1.40;;;1.15;;
70138;SDS011;57507;43.056;0.150;2023-09-30T14:08:56;1.45;;;0.95;;
70138;SDS011;57507;43.056;0.150;2023-09-30T14:11:22;1.08;;;0.90;;
70138;SDS011;57507;43.056;0.150;2023-09-30T14:13:48;1.58;;;1.13;;
70138;SDS011;57507;43.056;0.150;2023-09-30T14:16:14;1.52;;;1.10;;
70138;SDS011;57507;43.056;0.150;2023-09-30T14:18:41;2.03;;;1.05;;
70138;SDS011;57507;43.056;0.150;2023-09-30T14:21:07;1.60;;;1.00;;
70138;SDS011;57507;43.056;0.150;2023-09-30T14:23:33;1.27;;;0.80;;
70138;SDS011;57507;43.056;0.150;2023-09-30T14:26:00;1.70;;;1.10;;
70138;SDS011;57507;43.056;0.150;2023-09-30T14:28:29;1.13;;;0.88;;
70138;SDS011;57507;43.056;0.150;2023-09-30T14:30:55;1.73;;;1.05;;
70138;SDS011;57507;43.056;0.150;2023-09-30T14:33:21;1.88;;;1.02;;
70138;SDS011;57507;43.056;0.150;2023-09-30T14:35:47;1.67;;;1.10;;
70138;SDS011;57507;43.056;0.150;2023-09-30T14:38:13;1.52;;;1.00;;
70138;SDS011;57507;43.056;0.150;2023-09-30T14:40:39;1.67;;;1.15;;
70138;SDS011;57507;43.056;0.150;2023-09-30T14:43:06;1.63;;;1.30;;
70138;SDS011;57507;43.056;0.150;2023-09-30T14:45:39;1.10;;;1.00;;
70138;SDS011;57507;43.056;0.150;2023-09-30T14:48:06;1.52;;;1.27;;
70138;SDS011;57507;43.056;0.150;2023-09-30T14:50:32;0.93;;;0.82;;
70138;SDS011;57507;43.056;0.150;2023-09-30T14:52:58;2.38;;;1.20;;
70138;SDS011;57507;43.056;0.150;2023-09-30T14:55:24;1.30;;;1.02;;
70138;SDS011;57507;43.056;0.150;2023-09-30T14:57:50;1.55;;;1.10;;
70138;SDS011;57507;43.056;0.150;2023-09-30T15:00:16;2.58;;;1.30;;
70138;SDS011;57507;43.056;0.150;2023-09-30T15:02:42;1.40;;;1.00;;
70138;SDS011;57507;43.056;0.150;2023-09-30T15:05:09;2.70;;;0.95;;
70138;SDS011;57507;43.056;0.150;2023-09-30T15:07:35;1.90;;;1.15;;
70138;SDS011;57507;43.056;0.150;2023-09-30T15:10:07;1.15;;;0.90;;
70138;SDS011;57507;43.056;0.150;2023-09-30T15:12:34;1.98;;;1.10;;
70138;SDS011;57507;43.056;0.150;2023-09-30T15:15:00;1.20;;;1.10;;
70138;SDS011;57507;43.056;0.150;2023-09-30T15:17:26;3.38;;;1.20;;
70138;SDS011;57507;43.056;0.150;2023-09-30T15:19:54;2.60;;;1.27;;